Hatsu Ethic — VQFS4 — position and weather

sailwx.info

Track history (hours):
 
Tides and Currents Weather Stations Pressure Air Temp Water Temp Dewpoint Dewpoint Depression Visibility Wind Speed Wind Dir Waves Ship Positions

Hatsu Ethic

Last reported at 2015-Jul-02 12:00 UTC. Time now 2015-Jul-03 17:20 UTC.
Position N 52°30' W 147°48'.

Type: Ship (hazmat cat D). MMSI: 235603000.

Wind from 860 at 18 knots

Waves 1.0 meters (3 feet), 2 second period

Barometer 1022.0 mb
Air temperature 1.0 ° C
Visibility: greater than 10.8 NM
Dewpoint 10.0 ° C
Water temperature 8.0 ° C

Date/timePositionNaut miles runAvg speedWind from/ knotsBaromVisibWave heightAir tempDewpointWater temp
2015-Jul-02 12:00N 52°30' W 147°48'84617.8 860 / 181022.010.8 1.0 1.010.0 8.0
2015-Jun-30 12:30N 48°31' W 126°33'1718.0
2015-Jun-30 11:33N 48°32' W 126°07'1918.9
2015-Jun-30 10:33N 48°31' W 125°39'1918.8
2015-Jun-30 09:33N 48°31' W 125°10'1918.6
2015-Jun-30 08:33N 48°30' W 124°42'1918.6
2015-Jun-30 07:33N 48°23' W 124°16'1817.8
2015-Jun-30 06:33N 48°17' W 123°51'1515.0
2015-Jun-30 05:33N 48°18' W 123°29'1111.4
2015-Jun-30 04:34N 48°24' W 123°14'1818.4
2015-Jun-30 03:33N 48°43' W 123°14'1212.1
2015-Jun-30 02:34N 48°54' W 123°11'1817.8
2015-Jun-30 01:33N 49°11' W 123°22'1212.5
2015-Jun-30 00:33N 49°19' W 123°08'3 2.6
2015-Jun-29 23:33N 49°17' W 123°05'0 0.0
2015-Jun-29 22:33N 49°17' W 123°05'0 0.0
2015-Jun-29 21:33N 49°17' W 123°05'0 0.0
2015-Jun-29 20:33N 49°17' W 123°05'0 0.0
2015-Jun-29 19:33N 49°17' W 123°05'0 0.0
2015-Jun-29 18:33N 49°17' W 123°05'0 0.0
2015-Jun-29 17:33N 49°17' W 123°05'0 0.0
2015-Jun-29 16:33N 49°17' W 123°05'0 0.0
2015-Jun-29 15:33N 49°17' W 123°05'0 0.0
2015-Jun-29 14:33N 49°17' W 123°05'0 0.0
2015-Jun-29 13:33N 49°17' W 123°05'0 0.0
2015-Jun-29 12:33N 49°17' W 123°05'0 0.0
2015-Jun-29 11:33N 49°17' W 123°05'0 0.0
2015-Jun-29 10:33N 49°17' W 123°05'0 0.0
2015-Jun-29 09:33N 49°17' W 123°05'0 0.0
2015-Jun-29 08:33N 49°17' W 123°05'0 0.0
2015-Jun-29 07:33N 49°17' W 123°05'0 0.0
2015-Jun-29 06:33N 49°17' W 123°05'0 0.0
2015-Jun-29 05:33N 49°17' W 123°05'0 0.0
2015-Jun-29 04:33N 49°17' W 123°05'0 0.0
2015-Jun-29 03:33N 49°17' W 123°05'0 0.0
2015-Jun-29 02:33N 49°17' W 123°05'0 0.0
2015-Jun-29 01:33N 49°17' W 123°05'0 0.0
2015-Jun-29 00:33N 49°17' W 123°05'0 0.0
2015-Jun-28 23:33N 49°17' W 123°05'0 0.0
2015-Jun-28 22:33N 49°17' W 123°05'0 0.0
2015-Jun-28 21:33N 49°17' W 123°05'0 0.0
2015-Jun-28 20:33N 49°17' W 123°05'0 0.0
2015-Jun-28 19:33N 49°17' W 123°05'0 0.0
2015-Jun-28 18:33N 49°17' W 123°05'0 0.0
2015-Jun-28 17:33N 49°17' W 123°05'0 0.0
2015-Jun-28 16:33N 49°17' W 123°05'0 0.0
2015-Jun-28 15:30N 49°17' W 123°05'0 0.0
2015-Jun-28 14:33N 49°17' W 123°05'0 0.4
2015-Jun-28 13:33N 49°18' W 123°05'9 9.0
2015-Jun-28 12:34N 49°17' W 123°19'1615.9
2015-Jun-28 11:34N 49°01' W 123°16'1717.0
2015-Jun-28 10:34N 48°47' W 123°00'1515.0
2015-Jun-28 09:34N 48°34' W 123°13'1313.2
2015-Jun-28 08:33N 48°22' W 123°20'1110.9
2015-Jun-28 07:33N 48°12' W 123°24'1312.4
2015-Jun-28 06:33N 48°13' W 123°06'1818.0
2015-Jun-28 05:32N 48°07' W 122°40'1818.2
2015-Jun-28 04:33N 47°51' W 122°28'1716.7
2015-Jun-28 03:33N 47°34' W 122°27'1312.8
2015-Jun-28 02:33N 47°22' W 122°22'6 6.0
2015-Jun-28 01:32N 47°16' W 122°24'1 0.1
2015-Jun-27 09:14N 47°15' W 122°23'0 0.0
2015-Jun-27 08:20N 47°15' W 122°23'0 0.0
2015-Jun-27 07:20N 47°15' W 122°23'0 0.0
2015-Jun-26 22:26N 47°15' W 122°23'0 0.0
2015-Jun-26 07:29N 47°15' W 122°23'1 1.4
2015-Jun-26 06:33N 47°16' W 122°24'4 4.5
2015-Jun-26 05:33N 47°20' W 122°27'1211.8
2015-Jun-26 04:34N 47°32' W 122°27'1818.0
2015-Jun-26 03:34N 47°50' W 122°28'1918.8
2015-Jun-26 02:32N 48°07' W 122°41'1817.9
2015-Jun-26 01:33N 48°12' W 123°07'1312.8
2015-Jun-26 00:33N 48°11' W 123°26'5 5.3
2015-Jun-25 23:33N 48°13' W 123°33'9 9.4
2015-Jun-25 22:33N 48°14' W 123°47'1212.0
2015-Jun-25 21:33N 48°16' W 124°04'1312.6
2015-Jun-25 20:33N 48°21' W 124°22'1312.7
2015-Jun-25 19:33N 48°27' W 124°39'1313.1
2015-Jun-25 18:33N 48°29' W 124°58'1413.6
2015-Jun-25 17:33N 48°29' W 125°19'1312.9
2015-Jun-25 16:33N 48°29' W 125°38'1312.9
2015-Jun-25 15:34N 48°29' W 125°58'1312.9
2015-Jun-25 14:33N 48°29' W 126°17'1313.4
2015-Jun-25 13:34N 48°29' W 126°37'  
2015-Jun-23 06:00N 52°36' E 148°48'20817.3 060 / 171007.5 0.3 1.0 8.010.0 5.0
2015-Jun-22 18:00N 53°24' E 154°24'1725287.6 030 / 171013.0 2.2 1.0 7.0 7.0 7.0
2015-Jun-22 12:00N 53°42' W 157°12'   999 / 171101.4 5.4 0.5 7.0 7.018.0
Track history (hours):
 
Tides and Currents Weather Stations Pressure Air Temp Water Temp Dewpoint Dewpoint Depression Visibility Wind Speed Wind Dir Waves Ship Positions

Hatsu Ethic

Last reported at 2015-Jul-02 12:00 UTC. Time now 2015-Jul-03 17:20 UTC.
Position N 52°30' W 147°48'.

Type: Ship (hazmat cat D). MMSI: 235603000.

Wind from 860 at 18 knots

Waves 1.0 meters (3 feet), 2 second period

Barometer 1022.0 mb
Air temperature 1.0 ° C
Visibility: greater than 10.8 NM
Dewpoint 10.0 ° C
Water temperature 8.0 ° C

Date/timePositionNaut miles runAvg speedWind from/ knotsBaromVisibWave heightAir tempDewpointWater temp
2015-Jul-02 12:00N 52°30' W 147°48'84617.8 860 / 181022.010.8 1.0 1.010.0 8.0
2015-Jun-30 12:30N 48°31' W 126°33'1718.0
2015-Jun-30 11:33N 48°32' W 126°07'1918.9
2015-Jun-30 10:33N 48°31' W 125°39'1918.8
2015-Jun-30 09:33N 48°31' W 125°10'1918.6
2015-Jun-30 08:33N 48°30' W 124°42'1918.6
2015-Jun-30 07:33N 48°23' W 124°16'1817.8
2015-Jun-30 06:33N 48°17' W 123°51'1515.0
2015-Jun-30 05:33N 48°18' W 123°29'1111.4
2015-Jun-30 04:34N 48°24' W 123°14'1818.4
2015-Jun-30 03:33N 48°43' W 123°14'1212.1
2015-Jun-30 02:34N 48°54' W 123°11'1817.8
2015-Jun-30 01:33N 49°11' W 123°22'1212.5
2015-Jun-30 00:33N 49°19' W 123°08'3 2.6
2015-Jun-29 23:33N 49°17' W 123°05'0 0.0
2015-Jun-29 22:33N 49°17' W 123°05'0 0.0
2015-Jun-29 21:33N 49°17' W 123°05'0 0.0
2015-Jun-29 20:33N 49°17' W 123°05'0 0.0
2015-Jun-29 19:33N 49°17' W 123°05'0 0.0
2015-Jun-29 18:33N 49°17' W 123°05'0 0.0
2015-Jun-29 17:33N 49°17' W 123°05'0 0.0
2015-Jun-29 16:33N 49°17' W 123°05'0 0.0
2015-Jun-29 15:33N 49°17' W 123°05'0 0.0
2015-Jun-29 14:33N 49°17' W 123°05'0 0.0
2015-Jun-29 13:33N 49°17' W 123°05'0 0.0
2015-Jun-29 12:33N 49°17' W 123°05'0 0.0
2015-Jun-29 11:33N 49°17' W 123°05'0 0.0
2015-Jun-29 10:33N 49°17' W 123°05'0 0.0
2015-Jun-29 09:33N 49°17' W 123°05'0 0.0
2015-Jun-29 08:33N 49°17' W 123°05'0 0.0
2015-Jun-29 07:33N 49°17' W 123°05'0 0.0
2015-Jun-29 06:33N 49°17' W 123°05'0 0.0
2015-Jun-29 05:33N 49°17' W 123°05'0 0.0
2015-Jun-29 04:33N 49°17' W 123°05'0 0.0
2015-Jun-29 03:33N 49°17' W 123°05'0 0.0
2015-Jun-29 02:33N 49°17' W 123°05'0 0.0
2015-Jun-29 01:33N 49°17' W 123°05'0 0.0
2015-Jun-29 00:33N 49°17' W 123°05'0 0.0
2015-Jun-28 23:33N 49°17' W 123°05'0 0.0
2015-Jun-28 22:33N 49°17' W 123°05'0 0.0
2015-Jun-28 21:33N 49°17' W 123°05'0 0.0
2015-Jun-28 20:33N 49°17' W 123°05'0 0.0
2015-Jun-28 19:33N 49°17' W 123°05'0 0.0
2015-Jun-28 18:33N 49°17' W 123°05'0 0.0
2015-Jun-28 17:33N 49°17' W 123°05'0 0.0
2015-Jun-28 16:33N 49°17' W 123°05'0 0.0
2015-Jun-28 15:30N 49°17' W 123°05'0 0.0
2015-Jun-28 14:33N 49°17' W 123°05'0 0.4
2015-Jun-28 13:33N 49°18' W 123°05'9 9.0
2015-Jun-28 12:34N 49°17' W 123°19'1615.9
2015-Jun-28 11:34N 49°01' W 123°16'1717.0
2015-Jun-28 10:34N 48°47' W 123°00'1515.0
2015-Jun-28 09:34N 48°34' W 123°13'1313.2
2015-Jun-28 08:33N 48°22' W 123°20'1110.9
2015-Jun-28 07:33N 48°12' W 123°24'1312.4
2015-Jun-28 06:33N 48°13' W 123°06'1818.0
2015-Jun-28 05:32N 48°07' W 122°40'1818.2
2015-Jun-28 04:33N 47°51' W 122°28'1716.7
2015-Jun-28 03:33N 47°34' W 122°27'1312.8
2015-Jun-28 02:33N 47°22' W 122°22'6 6.0
2015-Jun-28 01:32N 47°16' W 122°24'1 0.1
2015-Jun-27 09:14N 47°15' W 122°23'0 0.0
2015-Jun-27 08:20N 47°15' W 122°23'0 0.0
2015-Jun-27 07:20N 47°15' W 122°23'0 0.0
2015-Jun-26 22:26N 47°15' W 122°23'0 0.0
2015-Jun-26 07:29N 47°15' W 122°23'1 1.4
2015-Jun-26 06:33N 47°16' W 122°24'4 4.5
2015-Jun-26 05:33N 47°20' W 122°27'1211.8
2015-Jun-26 04:34N 47°32' W 122°27'1818.0
2015-Jun-26 03:34N 47°50' W 122°28'1918.8
2015-Jun-26 02:32N 48°07' W 122°41'1817.9
2015-Jun-26 01:33N 48°12' W 123°07'1312.8
2015-Jun-26 00:33N 48°11' W 123°26'5 5.3
2015-Jun-25 23:33N 48°13' W 123°33'9 9.4
2015-Jun-25 22:33N 48°14' W 123°47'1212.0
2015-Jun-25 21:33N 48°16' W 124°04'1312.6
2015-Jun-25 20:33N 48°21' W 124°22'1312.7
2015-Jun-25 19:33N 48°27' W 124°39'1313.1
2015-Jun-25 18:33N 48°29' W 124°58'1413.6
2015-Jun-25 17:33N 48°29' W 125°19'1312.9
2015-Jun-25 16:33N 48°29' W 125°38'1312.9
2015-Jun-25 15:34N 48°29' W 125°58'1312.9
2015-Jun-25 14:33N 48°29' W 126°17'1313.4
2015-Jun-25 13:34N 48°29' W 126°37'  
2015-Jun-23 06:00N 52°36' E 148°48'20817.3 060 / 171007.5 0.3 1.0 8.010.0 5.0
2015-Jun-22 18:00N 53°24' E 154°24'1725287.6 030 / 171013.0 2.2 1.0 7.0 7.0 7.0
2015-Jun-22 12:00N 53°42' W 157°12'   999 / 171101.4 5.4 0.5 7.0 7.018.0

Dump ship's entire track history